sensor_id;sensor_type;location;lat;lon;timestamp;temperature;humidity
1592;DHT22;789;51.612;7.510;2023-07-09T00:00:12;26.20;1.00
1592;DHT22;789;51.612;7.510;2023-07-09T00:02:39;26.20;1.00
1592;DHT22;789;51.612;7.510;2023-07-09T00:05:11;26.10;1.00
1592;DHT22;789;51.612;7.510;2023-07-09T00:07:39;26.10;1.00
1592;DHT22;789;51.612;7.510;2023-07-09T00:10:14;26.10;1.00
1592;DHT22;789;51.612;7.510;2023-07-09T00:12:41;26.10;1.00
1592;DHT22;789;51.612;7.510;2023-07-09T00:15:10;26.10;1.00
1592;DHT22;789;51.612;7.510;2023-07-09T00:17:38;26.00;1.00
1592;DHT22;789;51.612;7.510;2023-07-09T00:20:06;26.00;1.00
1592;DHT22;789;51.612;7.510;2023-07-09T00:22:40;26.00;1.00
1592;DHT22;789;51.612;7.510;2023-07-09T00:25:09;26.00;1.00
1592;DHT22;789;51.612;7.510;2023-07-09T00:27:39;25.90;1.00
1592;DHT22;789;51.612;7.510;2023-07-09T00:30:09;25.90;1.00
1592;DHT22;789;51.612;7.510;2023-07-09T00:32:40;25.80;1.00
1592;DHT22;789;51.612;7.510;2023-07-09T00:35:09;25.80;1.00
1592;DHT22;789;51.612;7.510;2023-07-09T00:37:37;25.70;1.00
1592;DHT22;789;51.612;7.510;2023-07-09T00:40:12;25.70;1.00
1592;DHT22;789;51.612;7.510;2023-07-09T00:42:43;25.60;1.00
1592;DHT22;789;51.612;7.510;2023-07-09T00:45:18;25.60;1.00
1592;DHT22;789;51.612;7.510;2023-07-09T00:47:48;25.50;1.00
1592;DHT22;789;51.612;7.510;2023-07-09T00:50:34;25.50;1.00
1592;DHT22;789;51.612;7.510;2023-07-09T00:53:04;25.40;1.00
1592;DHT22;789;51.612;7.510;2023-07-09T00:55:40;25.40;1.00
1592;DHT22;789;51.612;7.510;2023-07-09T00:58:12;25.40;1.00
1592;DHT22;789;51.612;7.510;2023-07-09T01:00:44;25.40;1.00
1592;DHT22;789;51.612;7.510;2023-07-09T01:03:18;25.40;1.00
1592;DHT22;789;51.612;7.510;2023-07-09T01:05:47;25.40;1.00
1592;DHT22;789;51.612;7.510;2023-07-09T01:08:18;25.30;1.00
1592;DHT22;789;51.612;7.510;2023-07-09T01:10:47;25.30;1.00
1592;DHT22;789;51.612;7.510;2023-07-09T01:13:15;25.30;1.00
1592;DHT22;789;51.612;7.510;2023-07-09T01:15:43;25.20;1.00
1592;DHT22;789;51.612;7.510;2023-07-09T01:18:12;25.20;1.00
1592;DHT22;789;51.612;7.510;2023-07-09T01:20:39;25.20;1.00
1592;DHT22;789;51.612;7.510;2023-07-09T01:23:08;25.10;1.00
1592;DHT22;789;51.612;7.510;2023-07-09T01:25:36;25.10;1.00
1592;DHT22;789;51.612;7.510;2023-07-09T01:28:04;25.10;1.00
1592;DHT22;789;51.612;7.510;2023-07-09T01:30:38;25.10;1.00
1592;DHT22;789;51.612;7.510;2023-07-09T01:33:06;25.00;1.00
1592;DHT22;789;51.612;7.510;2023-07-09T01:35:36;24.90;1.00
1592;DHT22;789;51.612;7.510;2023-07-09T01:38:03;24.90;1.00
1592;DHT22;789;51.612;7.510;2023-07-09T01:40:34;24.90;1.00
1592;DHT22;789;51.612;7.510;2023-07-09T01:43:03;24.70;1.00
1592;DHT22;789;51.612;7.510;2023-07-09T01:45:32;24.70;1.00
1592;DHT22;789;51.612;7.510;2023-07-09T01:48:00;24.60;1.00
1592;DHT22;789;51.612;7.510;2023-07-09T01:50:27;24.60;1.00
1592;DHT22;789;51.612;7.510;2023-07-09T01:52:55;24.60;1.00
1592;DHT22;789;51.612;7.510;2023-07-09T01:55:23;24.60;1.00
1592;DHT22;789;51.612;7.510;2023-07-09T01:57:51;24.60;1.00
1592;DHT22;789;51.612;7.510;2023-07-09T02:00:18;24.60;1.00
1592;DHT22;789;51.612;7.510;2023-07-09T02:02:46;24.50;1.00
1592;DHT22;789;51.612;7.510;2023-07-09T02:05:14;24.50;1.00
1592;DHT22;789;51.612;7.510;2023-07-09T02:07:41;24.50;1.00
1592;DHT22;789;51.612;7.510;2023-07-09T02:10:11;24.40;1.00
1592;DHT22;789;51.612;7.510;2023-07-09T02:12:38;24.40;1.00
1592;DHT22;789;51.612;7.510;2023-07-09T02:15:08;24.40;1.00
1592;DHT22;789;51.612;7.510;2023-07-09T02:17:35;24.40;1.00
1592;DHT22;789;51.612;7.510;2023-07-09T02:20:02;24.40;1.00
1592;DHT22;789;51.612;7.510;2023-07-09T02:22:30;24.30;1.00
1592;DHT22;789;51.612;7.510;2023-07-09T02:24:57;24.40;1.00
1592;DHT22;789;51.612;7.510;2023-07-09T02:27:24;24.30;1.00
1592;DHT22;789;51.612;7.510;2023-07-09T02:29:51;24.30;1.00
1592;DHT22;789;51.612;7.510;2023-07-09T02:32:20;24.30;1.00
1592;DHT22;789;51.612;7.510;2023-07-09T02:34:47;24.20;1.00
1592;DHT22;789;51.612;7.510;2023-07-09T02:37:19;24.20;1.00
1592;DHT22;789;51.612;7.510;2023-07-09T02:39:46;24.10;1.00
1592;DHT22;789;51.612;7.510;2023-07-09T02:42:14;24.10;1.00
1592;DHT22;789;51.612;7.510;2023-07-09T02:44:42;24.10;1.00
1592;DHT22;789;51.612;7.510;2023-07-09T02:47:09;24.00;1.00
1592;DHT22;789;51.612;7.510;2023-07-09T02:49:38;24.00;1.00
1592;DHT22;789;51.612;7.510;2023-07-09T02:52:10;23.90;1.00
1592;DHT22;789;51.612;7.510;2023-07-09T02:54:37;23.90;1.00
1592;DHT22;789;51.612;7.510;2023-07-09T02:57:04;23.90;1.00
1592;DHT22;789;51.612;7.510;2023-07-09T02:59:31;23.90;1.00
1592;DHT22;789;51.612;7.510;2023-07-09T03:01:59;23.90;1.00
1592;DHT22;789;51.612;7.510;2023-07-09T03:04:26;23.80;1.00
1592;DHT22;789;51.612;7.510;2023-07-09T03:06:54;23.90;1.00
1592;DHT22;789;51.612;7.510;2023-07-09T03:09:21;23.80;1.00
1592;DHT22;789;51.612;7.510;2023-07-09T03:11:48;23.80;1.00
1592;DHT22;789;51.612;7.510;2023-07-09T03:14:15;23.80;1.00
1592;DHT22;789;51.612;7.510;2023-07-09T03:16:42;23.90;1.00
1592;DHT22;789;51.612;7.510;2023-07-09T03:19:09;23.80;1.00
1592;DHT22;789;51.612;7.510;2023-07-09T03:21:36;23.80;1.00
1592;DHT22;789;51.612;7.510;2023-07-09T03:24:05;23.80;1.00
1592;DHT22;789;51.612;7.510;2023-07-09T03:26:32;23.70;1.00
1592;DHT22;789;51.612;7.510;2023-07-09T03:28:59;23.70;1.00
1592;DHT22;789;51.612;7.510;2023-07-09T03:31:26;23.60;1.00
1592;DHT22;789;51.612;7.510;2023-07-09T03:33:53;23.60;1.00
1592;DHT22;789;51.612;7.510;2023-07-09T03:36:20;23.60;1.00
1592;DHT22;789;51.612;7.510;2023-07-09T03:38:47;23.60;1.00
1592;DHT22;789;51.612;7.510;2023-07-09T03:41:15;23.60;1.00
1592;DHT22;789;51.612;7.510;2023-07-09T03:43:42;23.50;1.00
1592;DHT22;789;51.612;7.510;2023-07-09T03:46:09;23.50;1.00
1592;DHT22;789;51.612;7.510;2023-07-09T03:48:36;23.40;1.00
1592;DHT22;789;51.612;7.510;2023-07-09T03:51:03;23.20;1.00
1592;DHT22;789;51.612;7.510;2023-07-09T03:53:30;23.20;1.00
1592;DHT22;789;51.612;7.510;2023-07-09T03:55:57;23.10;1.00
1592;DHT22;789;51.612;7.510;2023-07-09T03:58:26;23.10;1.00
1592;DHT22;789;51.612;7.510;2023-07-09T04:00:53;23.10;1.00
1592;DHT22;789;51.612;7.510;2023-07-09T04:03:20;23.20;1.00
1592;DHT22;789;51.612;7.510;2023-07-09T04:05:47;23.10;1.00
1592;DHT22;789;51.612;7.510;2023-07-09T04:08:14;23.10;1.00
1592;DHT22;789;51.612;7.510;2023-07-09T04:10:41;23.10;1.00
1592;DHT22;789;51.612;7.510;2023-07-09T04:13:08;23.10;1.00
1592;DHT22;789;51.612;7.510;2023-07-09T04:15:36;23.10;1.00
1592;DHT22;789;51.612;7.510;2023-07-09T04:18:03;23.10;1.00
1592;DHT22;789;51.612;7.510;2023-07-09T04:20:30;23.20;1.00
1592;DHT22;789;51.612;7.510;2023-07-09T04:22:56;23.20;1.00
1592;DHT22;789;51.612;7.510;2023-07-09T04:25:23;23.20;1.00
1592;DHT22;789;51.612;7.510;2023-07-09T04:27:50;23.20;1.00
1592;DHT22;789;51.612;7.510;2023-07-09T04:30:17;23.20;1.00
1592;DHT22;789;51.612;7.510;2023-07-09T04:32:46;23.30;1.00
1592;DHT22;789;51.612;7.510;2023-07-09T04:35:14;23.30;1.00
1592;DHT22;789;51.612;7.510;2023-07-09T04:37:41;23.40;1.00
1592;DHT22;789;51.612;7.510;2023-07-09T04:40:09;23.40;1.00
1592;DHT22;789;51.612;7.510;2023-07-09T04:42:37;23.50;1.00
1592;DHT22;789;51.612;7.510;2023-07-09T04:45:07;23.50;1.00
1592;DHT22;789;51.612;7.510;2023-07-09T04:47:34;23.60;1.00
1592;DHT22;789;51.612;7.510;2023-07-09T04:50:03;23.70;1.00
1592;DHT22;789;51.612;7.510;2023-07-09T04:52:30;23.80;1.00
1592;DHT22;789;51.612;7.510;2023-07-09T04:54:57;23.90;1.00
1592;DHT22;789;51.612;7.510;2023-07-09T04:57:26;23.90;1.00
1592;DHT22;789;51.612;7.510;2023-07-09T04:59:53;24.00;1.00
1592;DHT22;789;51.612;7.510;2023-07-09T05:02:20;24.10;1.00
1592;DHT22;789;51.612;7.510;2023-07-09T05:04:46;24.20;1.00
1592;DHT22;789;51.612;7.510;2023-07-09T05:07:14;24.30;1.00
1592;DHT22;789;51.612;7.510;2023-07-09T05:09:41;24.40;1.00
1592;DHT22;789;51.612;7.510;2023-07-09T05:12:08;24.60;1.00
1592;DHT22;789;51.612;7.510;2023-07-09T05:14:35;24.70;1.00
1592;DHT22;789;51.612;7.510;2023-07-09T05:17:02;24.90;1.00
1592;DHT22;789;51.612;7.510;2023-07-09T05:19:30;25.00;1.00
1592;DHT22;789;51.612;7.510;2023-07-09T05:21:57;25.20;1.00
1592;DHT22;789;51.612;7.510;2023-07-09T05:24:25;25.40;1.00
1592;DHT22;789;51.612;7.510;2023-07-09T05:26:52;25.60;1.00
1592;DHT22;789;51.612;7.510;2023-07-09T05:29:19;25.70;1.00
1592;DHT22;789;51.612;7.510;2023-07-09T05:31:45;25.90;1.00
1592;DHT22;789;51.612;7.510;2023-07-09T05:34:12;26.00;1.00
1592;DHT22;789;51.612;7.510;2023-07-09T05:36:39;26.20;1.00
1592;DHT22;789;51.612;7.510;2023-07-09T05:39:06;26.40;1.00
1592;DHT22;789;51.612;7.510;2023-07-09T05:41:34;26.50;1.00
1592;DHT22;789;51.612;7.510;2023-07-09T05:44:01;26.70;1.00
1592;DHT22;789;51.612;7.510;2023-07-09T05:46:28;26.80;1.00
1592;DHT22;789;51.612;7.510;2023-07-09T05:48:54;27.00;1.00
1592;DHT22;789;51.612;7.510;2023-07-09T05:51:26;27.10;1.00
1592;DHT22;789;51.612;7.510;2023-07-09T05:53:53;27.30;1.00
1592;DHT22;789;51.612;7.510;2023-07-09T05:56:20;27.40;1.00
1592;DHT22;789;51.612;7.510;2023-07-09T05:58:48;27.50;1.00
1592;DHT22;789;51.612;7.510;2023-07-09T06:01:15;27.60;1.00
1592;DHT22;789;51.612;7.510;2023-07-09T06:03:42;27.60;1.00
1592;DHT22;789;51.612;7.510;2023-07-09T06:06:09;27.70;1.00
1592;DHT22;789;51.612;7.510;2023-07-09T06:08:35;27.90;1.00
1592;DHT22;789;51.612;7.510;2023-07-09T06:11:03;28.00;1.00
1592;DHT22;789;51.612;7.510;2023-07-09T06:13:31;28.10;1.00
1592;DHT22;789;51.612;7.510;2023-07-09T06:16:00;28.30;1.00
1592;DHT22;789;51.612;7.510;2023-07-09T06:18:29;28.50;1.00
1592;DHT22;789;51.612;7.510;2023-07-09T06:20:58;28.60;1.00
1592;DHT22;789;51.612;7.510;2023-07-09T06:23:27;28.90;1.00
1592;DHT22;789;51.612;7.510;2023-07-09T06:25:53;29.10;1.00
1592;DHT22;789;51.612;7.510;2023-07-09T06:28:23;29.30;1.00
1592;DHT22;789;51.612;7.510;2023-07-09T06:30:50;29.60;1.00
1592;DHT22;789;51.612;7.510;2023-07-09T06:33:19;29.80;1.00
1592;DHT22;789;51.612;7.510;2023-07-09T06:35:47;29.90;1.00
1592;DHT22;789;51.612;7.510;2023-07-09T06:38:14;30.20;1.00
1592;DHT22;789;51.612;7.510;2023-07-09T06:40:42;30.40;1.00
1592;DHT22;789;51.612;7.510;2023-07-09T06:43:09;30.60;1.00
1592;DHT22;789;51.612;7.510;2023-07-09T06:45:36;30.90;1.00
1592;DHT22;789;51.612;7.510;2023-07-09T06:48:04;31.10;1.00
1592;DHT22;789;51.612;7.510;2023-07-09T06:50:34;31.30;1.00
1592;DHT22;789;51.612;7.510;2023-07-09T06:53:01;31.40;1.00
1592;DHT22;789;51.612;7.510;2023-07-09T06:55:27;31.60;1.00
1592;DHT22;789;51.612;7.510;2023-07-09T06:57:54;31.70;1.00
1592;DHT22;789;51.612;7.510;2023-07-09T07:00:21;31.70;1.00
1592;DHT22;789;51.612;7.510;2023-07-09T07:02:48;31.70;1.00
1592;DHT22;789;51.612;7.510;2023-07-09T07:05:16;31.70;1.00
1592;DHT22;789;51.612;7.510;2023-07-09T07:07:44;31.90;1.00
1592;DHT22;789;51.612;7.510;2023-07-09T07:10:11;32.00;1.00
1592;DHT22;789;51.612;7.510;2023-07-09T07:12:43;32.00;1.00
1592;DHT22;789;51.612;7.510;2023-07-09T07:15:13;32.20;1.00
1592;DHT22;789;51.612;7.510;2023-07-09T07:17:40;32.30;1.00
1592;DHT22;789;51.612;7.510;2023-07-09T07:20:12;32.50;1.00
1592;DHT22;789;51.612;7.510;2023-07-09T07:22:39;32.80;1.00
1592;DHT22;789;51.612;7.510;2023-07-09T07:25:08;33.00;1.00
1592;DHT22;789;51.612;7.510;2023-07-09T07:27:36;33.10;1.00
1592;DHT22;789;51.612;7.510;2023-07-09T07:30:05;33.30;1.00
1592;DHT22;789;51.612;7.510;2023-07-09T07:32:34;33.40;1.00
1592;DHT22;789;51.612;7.510;2023-07-09T07:35:01;33.70;1.00
1592;DHT22;789;51.612;7.510;2023-07-09T07:37:28;33.90;1.00
1592;DHT22;789;51.612;7.510;2023-07-09T07:39:55;34.10;1.00
1592;DHT22;789;51.612;7.510;2023-07-09T07:42:23;34.40;1.00
1592;DHT22;789;51.612;7.510;2023-07-09T07:44:49;34.70;1.00
1592;DHT22;789;51.612;7.510;2023-07-09T07:47:17;34.80;1.00
1592;DHT22;789;51.612;7.510;2023-07-09T07:49:45;35.10;1.00
1592;DHT22;789;51.612;7.510;2023-07-09T07:52:12;35.60;1.00
1592;DHT22;789;51.612;7.510;2023-07-09T07:54:39;36.10;1.00
1592;DHT22;789;51.612;7.510;2023-07-09T07:57:05;36.60;1.00
1592;DHT22;789;51.612;7.510;2023-07-09T07:59:36;37.10;1.00
1592;DHT22;789;51.612;7.510;2023-07-09T08:02:03;37.40;1.00
1592;DHT22;789;51.612;7.510;2023-07-09T08:04:30;37.80;1.00
1592;DHT22;789;51.612;7.510;2023-07-09T08:06:57;38.30;1.00
1592;DHT22;789;51.612;7.510;2023-07-09T08:09:24;38.80;1.00
1592;DHT22;789;51.612;7.510;2023-07-09T08:11:52;39.30;1.00
1592;DHT22;789;51.612;7.510;2023-07-09T08:14:21;39.60;1.00
1592;DHT22;789;51.612;7.510;2023-07-09T08:16:49;39.50;1.00
1592;DHT22;789;51.612;7.510;2023-07-09T08:19:19;39.90;1.00
1592;DHT22;789;51.612;7.510;2023-07-09T08:21:47;40.50;1.00
1592;DHT22;789;51.612;7.510;2023-07-09T08:24:14;41.30;1.00
1592;DHT22;789;51.612;7.510;2023-07-09T08:26:41;42.20;1.00
1592;DHT22;789;51.612;7.510;2023-07-09T08:29:07;42.90;1.00
1592;DHT22;789;51.612;7.510;2023-07-09T08:31:34;43.60;1.00
1592;DHT22;789;51.612;7.510;2023-07-09T08:34:05;44.20;1.00
1592;DHT22;789;51.612;7.510;2023-07-09T08:36:32;44.70;1.00
1592;DHT22;789;51.612;7.510;2023-07-09T08:39:01;45.20;1.00
1592;DHT22;789;51.612;7.510;2023-07-09T08:41:37;45.00;1.00
1592;DHT22;789;51.612;7.510;2023-07-09T08:44:24;44.90;1.00
1592;DHT22;789;51.612;7.510;2023-07-09T08:47:00;45.30;1.00
1592;DHT22;789;51.612;7.510;2023-07-09T08:49:38;45.70;1.00
1592;DHT22;789;51.612;7.510;2023-07-09T08:52:12;45.90;1.00
1592;DHT22;789;51.612;7.510;2023-07-09T08:54:41;46.70;1.00
1592;DHT22;789;51.612;7.510;2023-07-09T08:57:19;47.50;1.00
1592;DHT22;789;51.612;7.510;2023-07-09T08:59:49;48.20;1.00
1592;DHT22;789;51.612;7.510;2023-07-09T09:02:22;48.70;1.00
1592;DHT22;789;51.612;7.510;2023-07-09T09:04:54;48.80;1.00
1592;DHT22;789;51.612;7.510;2023-07-09T09:07:29;49.00;1.00
1592;DHT22;789;51.612;7.510;2023-07-09T09:10:00;49.30;1.00
1592;DHT22;789;51.612;7.510;2023-07-09T09:12:30;49.70;1.00
1592;DHT22;789;51.612;7.510;2023-07-09T09:15:02;50.10;1.00
1592;DHT22;789;51.612;7.510;2023-07-09T09:17:34;50.00;1.00
1592;DHT22;789;51.612;7.510;2023-07-09T09:20:07;50.10;1.00
1592;DHT22;789;51.612;7.510;2023-07-09T09:22:42;50.30;1.00
1592;DHT22;789;51.612;7.510;2023-07-09T09:25:18;50.70;1.00
1592;DHT22;789;51.612;7.510;2023-07-09T09:27:46;51.20;1.00
1592;DHT22;789;51.612;7.510;2023-07-09T09:30:14;51.30;1.00
1592;DHT22;789;51.612;7.510;2023-07-09T09:32:43;51.50;1.00
1592;DHT22;789;51.612;7.510;2023-07-09T09:35:14;51.60;1.00
1592;DHT22;789;51.612;7.510;2023-07-09T09:37:49;51.80;1.00
1592;DHT22;789;51.612;7.510;2023-07-09T09:40:17;51.80;1.00
1592;DHT22;789;51.612;7.510;2023-07-09T09:42:47;51.80;1.00
1592;DHT22;789;51.612;7.510;2023-07-09T09:45:17;51.70;1.00
1592;DHT22;789;51.612;7.510;2023-07-09T09:47:44;51.80;1.00
1592;DHT22;789;51.612;7.510;2023-07-09T09:50:14;51.70;1.00
1592;DHT22;789;51.612;7.510;2023-07-09T09:52:43;51.90;1.00
1592;DHT22;789;51.612;7.510;2023-07-09T09:55:20;52.20;1.00
1592;DHT22;789;51.612;7.510;2023-07-09T09:57:49;52.00;1.00
1592;DHT22;789;51.612;7.510;2023-07-09T10:00:17;52.00;1.00
1592;DHT22;789;51.612;7.510;2023-07-09T10:02:45;52.30;1.00
1592;DHT22;789;51.612;7.510;2023-07-09T10:05:15;52.60;1.00
1592;DHT22;789;51.612;7.510;2023-07-09T10:07:45;52.90;1.00
1592;DHT22;789;51.612;7.510;2023-07-09T10:10:19;52.80;1.00
1592;DHT22;789;51.612;7.510;2023-07-09T10:12:57;53.00;1.00
1592;DHT22;789;51.612;7.510;2023-07-09T10:15:39;53.20;1.00
1592;DHT22;789;51.612;7.510;2023-07-09T10:18:27;53.60;1.00
1592;DHT22;789;51.612;7.510;2023-07-09T10:21:05;54.00;1.00
1592;DHT22;789;51.612;7.510;2023-07-09T10:23:42;54.10;1.00
1592;DHT22;789;51.612;7.510;2023-07-09T10:26:19;54.30;1.00
1592;DHT22;789;51.612;7.510;2023-07-09T10:29:23;54.60;1.00
1592;DHT22;789;51.612;7.510;2023-07-09T10:32:04;55.00;1.00
1592;DHT22;789;51.612;7.510;2023-07-09T10:34:44;55.20;1.00
1592;DHT22;789;51.612;7.510;2023-07-09T10:37:34;55.30;1.00
1592;DHT22;789;51.612;7.510;2023-07-09T10:40:08;55.10;1.00
1592;DHT22;789;51.612;7.510;2023-07-09T10:42:40;55.40;1.00
1592;DHT22;789;51.612;7.510;2023-07-09T10:45:11;55.40;1.00
1592;DHT22;789;51.612;7.510;2023-07-09T10:47:43;55.10;1.00
1592;DHT22;789;51.612;7.510;2023-07-09T10:50:15;55.00;1.00
1592;DHT22;789;51.612;7.510;2023-07-09T10:52:47;54.10;1.00
1592;DHT22;789;51.612;7.510;2023-07-09T10:55:18;52.60;1.00
1592;DHT22;789;51.612;7.510;2023-07-09T10:57:52;52.50;1.00
1592;DHT22;789;51.612;7.510;2023-07-09T11:00:24;52.40;1.00
1592;DHT22;789;51.612;7.510;2023-07-09T11:02:59;52.60;1.00
1592;DHT22;789;51.612;7.510;2023-07-09T11:05:26;52.90;1.00
1592;DHT22;789;51.612;7.510;2023-07-09T11:08:00;53.20;1.00
1592;DHT22;789;51.612;7.510;2023-07-09T11:10:30;53.10;1.00
1592;DHT22;789;51.612;7.510;2023-07-09T11:13:02;52.80;1.00
1592;DHT22;789;51.612;7.510;2023-07-09T11:15:36;52.80;1.00
1592;DHT22;789;51.612;7.510;2023-07-09T11:18:05;53.10;1.00
1592;DHT22;789;51.612;7.510;2023-07-09T11:20:35;52.80;1.00
1592;DHT22;789;51.612;7.510;2023-07-09T11:23:05;53.10;1.00
1592;DHT22;789;51.612;7.510;2023-07-09T11:25:41;53.60;1.00
1592;DHT22;789;51.612;7.510;2023-07-09T11:28:11;53.90;1.00
1592;DHT22;789;51.612;7.510;2023-07-09T11:30:53;53.90;1.00
1592;DHT22;789;51.612;7.510;2023-07-09T11:33:26;54.20;1.00
1592;DHT22;789;51.612;7.510;2023-07-09T11:36:10;54.30;1.00
1592;DHT22;789;51.612;7.510;2023-07-09T11:38:42;53.00;1.00
1592;DHT22;789;51.612;7.510;2023-07-09T11:41:27;51.10;1.00
1592;DHT22;789;51.612;7.510;2023-07-09T11:44:03;50.20;1.00
1592;DHT22;789;51.612;7.510;2023-07-09T11:46:31;49.40;1.00
1592;DHT22;789;51.612;7.510;2023-07-09T11:49:10;48.10;1.00
1592;DHT22;789;51.612;7.510;2023-07-09T11:51:46;46.80;1.00
1592;DHT22;789;51.612;7.510;2023-07-09T11:54:19;45.30;1.00
1592;DHT22;789;51.612;7.510;2023-07-09T11:56:53;44.00;1.00
1592;DHT22;789;51.612;7.510;2023-07-09T11:59:25;43.10;1.00
1592;DHT22;789;51.612;7.510;2023-07-09T12:01:54;42.40;1.00
1592;DHT22;789;51.612;7.510;2023-07-09T12:04:32;41.70;1.00
1592;DHT22;789;51.612;7.510;2023-07-09T12:07:01;40.90;1.00
1592;DHT22;789;51.612;7.510;2023-07-09T12:09:37;40.50;1.00
1592;DHT22;789;51.612;7.510;2023-07-09T12:12:18;40.00;1.00
1592;DHT22;789;51.612;7.510;2023-07-09T12:14:48;39.60;1.00
1592;DHT22;789;51.612;7.510;2023-07-09T12:17:14;39.30;1.00
1592;DHT22;789;51.612;7.510;2023-07-09T12:19:41;39.10;1.00
1592;DHT22;789;51.612;7.510;2023-07-09T12:22:19;39.00;1.00
1592;DHT22;789;51.612;7.510;2023-07-09T12:24:50;38.80;1.00
1592;DHT22;789;51.612;7.510;2023-07-09T12:27:22;38.60;1.00
1592;DHT22;789;51.612;7.510;2023-07-09T12:29:51;38.30;1.00
1592;DHT22;789;51.612;7.510;2023-07-09T12:32:23;38.20;1.00
1592;DHT22;789;51.612;7.510;2023-07-09T12:34:57;38.30;1.00
1592;DHT22;789;51.612;7.510;2023-07-09T12:37:30;38.30;1.00
1592;DHT22;789;51.612;7.510;2023-07-09T12:40:15;38.30;1.00
1592;DHT22;789;51.612;7.510;2023-07-09T12:42:51;38.40;1.00
1592;DHT22;789;51.612;7.510;2023-07-09T12:45:27;38.20;1.00
1592;DHT22;789;51.612;7.510;2023-07-09T12:48:04;38.10;1.00
1592;DHT22;789;51.612;7.510;2023-07-09T12:50:50;38.00;1.00
1592;DHT22;789;51.612;7.510;2023-07-09T12:53:28;38.00;1.00
1592;DHT22;789;51.612;7.510;2023-07-09T12:56:00;38.10;1.00
1592;DHT22;789;51.612;7.510;2023-07-09T12:58:36;38.10;1.00
1592;DHT22;789;51.612;7.510;2023-07-09T13:01:14;38.20;1.00
1592;DHT22;789;51.612;7.510;2023-07-09T13:06:30;38.00;1.00
1592;DHT22;789;51.612;7.510;2023-07-09T13:08:58;37.90;1.00
1592;DHT22;789;51.612;7.510;2023-07-09T13:11:34;37.80;1.00
1592;DHT22;789;51.612;7.510;2023-07-09T13:14:05;37.60;1.00
1592;DHT22;789;51.612;7.510;2023-07-09T13:16:38;37.60;1.00
1592;DHT22;789;51.612;7.510;2023-07-09T13:19:05;37.80;1.00
1592;DHT22;789;51.612;7.510;2023-07-09T13:21:38;38.00;1.00
1592;DHT22;789;51.612;7.510;2023-07-09T13:24:14;38.10;1.00
1592;DHT22;789;51.612;7.510;2023-07-09T13:26:46;38.20;1.00
1592;DHT22;789;51.612;7.510;2023-07-09T13:29:17;38.30;1.00
1592;DHT22;789;51.612;7.510;2023-07-09T13:31:45;38.40;1.00
1592;DHT22;789;51.612;7.510;2023-07-09T13:34:27;38.40;1.00
1592;DHT22;789;51.612;7.510;2023-07-09T13:37:02;38.50;1.00
1592;DHT22;789;51.612;7.510;2023-07-09T13:39:28;38.70;1.00
1592;DHT22;789;51.612;7.510;2023-07-09T13:41:57;38.80;1.00
1592;DHT22;789;51.612;7.510;2023-07-09T13:44:26;39.00;1.00
1592;DHT22;789;51.612;7.510;2023-07-09T13:46:54;38.90;1.00
1592;DHT22;789;51.612;7.510;2023-07-09T13:49:23;38.90;1.00
1592;DHT22;789;51.612;7.510;2023-07-09T13:51:55;39.00;1.00
1592;DHT22;789;51.612;7.510;2023-07-09T13:54:25;39.00;1.00
1592;DHT22;789;51.612;7.510;2023-07-09T13:56:58;38.90;1.00
1592;DHT22;789;51.612;7.510;2023-07-09T13:59:27;38.70;1.00
1592;DHT22;789;51.612;7.510;2023-07-09T14:01:56;38.40;1.00
1592;DHT22;789;51.612;7.510;2023-07-09T14:04:25;38.30;1.00
1592;DHT22;789;51.612;7.510;2023-07-09T14:06:52;38.10;1.00
1592;DHT22;789;51.612;7.510;2023-07-09T14:09:19;38.10;1.00
1592;DHT22;789;51.612;7.510;2023-07-09T14:11:49;38.10;1.00
1592;DHT22;789;51.612;7.510;2023-07-09T14:14:20;38.20;1.00
1592;DHT22;789;51.612;7.510;2023-07-09T14:16:48;38.30;1.00
1592;DHT22;789;51.612;7.510;2023-07-09T14:19:17;38.30;1.00
1592;DHT22;789;51.612;7.510;2023-07-09T14:21:45;38.40;1.00
1592;DHT22;789;51.612;7.510;2023-07-09T14:24:18;38.20;1.00
1592;DHT22;789;51.612;7.510;2023-07-09T14:26:46;37.90;1.00
1592;DHT22;789;51.612;7.510;2023-07-09T14:29:13;37.90;1.00
1592;DHT22;789;51.612;7.510;2023-07-09T14:31:42;37.90;1.00
1592;DHT22;789;51.612;7.510;2023-07-09T14:34:18;37.80;1.00
1592;DHT22;789;51.612;7.510;2023-07-09T14:36:46;37.70;1.00
1592;DHT22;789;51.612;7.510;2023-07-09T14:39:13;37.60;1.00
1592;DHT22;789;51.612;7.510;2023-07-09T14:41:41;37.50;1.00
1592;DHT22;789;51.612;7.510;2023-07-09T14:44:19;37.30;1.00
1592;DHT22;789;51.612;7.510;2023-07-09T14:46:49;37.20;1.00
1592;DHT22;789;51.612;7.510;2023-07-09T14:49:17;37.10;1.00
1592;DHT22;789;51.612;7.510;2023-07-09T14:51:44;37.00;1.00
1592;DHT22;789;51.612;7.510;2023-07-09T14:54:19;36.80;1.00
1592;DHT22;789;51.612;7.510;2023-07-09T14:56:47;36.70;1.00
1592;DHT22;789;51.612;7.510;2023-07-09T14:59:14;36.60;1.00
1592;DHT22;789;51.612;7.510;2023-07-09T15:01:41;36.30;1.00
1592;DHT22;789;51.612;7.510;2023-07-09T15:04:26;36.10;1.00
1592;DHT22;789;51.612;7.510;2023-07-09T15:06:54;35.90;1.00
1592;DHT22;789;51.612;7.510;2023-07-09T15:09:23;35.80;1.00
1592;DHT22;789;51.612;7.510;2023-07-09T15:11:51;35.80;1.00
1592;DHT22;789;51.612;7.510;2023-07-09T15:14:18;35.70;1.00
1592;DHT22;789;51.612;7.510;2023-07-09T15:16:46;35.60;1.00
1592;DHT22;789;51.612;7.510;2023-07-09T15:19:17;35.50;1.00
1592;DHT22;789;51.612;7.510;2023-07-09T15:21:44;35.40;1.00
1592;DHT22;789;51.612;7.510;2023-07-09T15:24:15;35.20;1.00
1592;DHT22;789;51.612;7.510;2023-07-09T15:26:45;34.10;1.00
1592;DHT22;789;51.612;7.510;2023-07-09T15:29:16;33.20;1.00
1592;DHT22;789;51.612;7.510;2023-07-09T15:31:43;32.30;1.00
1592;DHT22;789;51.612;7.510;2023-07-09T15:34:10;31.70;1.00
1592;DHT22;789;51.612;7.510;2023-07-09T15:36:38;31.30;1.00
1592;DHT22;789;51.612;7.510;2023-07-09T15:39:08;30.70;1.00
1592;DHT22;789;51.612;7.510;2023-07-09T15:41:35;30.10;1.00
1592;DHT22;789;51.612;7.510;2023-07-09T15:44:02;29.40;1.00
1592;DHT22;789;51.612;7.510;2023-07-09T15:46:29;28.60;1.00
1592;DHT22;789;51.612;7.510;2023-07-09T15:48:56;27.80;1.00
1592;DHT22;789;51.612;7.510;2023-07-09T15:51:23;27.20;1.00
1592;DHT22;789;51.612;7.510;2023-07-09T15:53:51;26.60;1.00
1592;DHT22;789;51.612;7.510;2023-07-09T15:56:22;26.10;1.00
1592;DHT22;789;51.612;7.510;2023-07-09T15:58:50;25.90;1.00
1592;DHT22;789;51.612;7.510;2023-07-09T16:01:17;25.70;1.00
1592;DHT22;789;51.612;7.510;2023-07-09T16:03:46;25.70;1.00
1592;DHT22;789;51.612;7.510;2023-07-09T16:06:14;25.70;1.00
1592;DHT22;789;51.612;7.510;2023-07-09T16:08:40;25.70;1.00
1592;DHT22;789;51.612;7.510;2023-07-09T16:11:15;25.80;1.00
1592;DHT22;789;51.612;7.510;2023-07-09T16:13:42;25.70;1.00
1592;DHT22;789;51.612;7.510;2023-07-09T16:16:13;25.80;1.00
1592;DHT22;789;51.612;7.510;2023-07-09T16:18:40;25.90;1.00
1592;DHT22;789;51.612;7.510;2023-07-09T16:21:17;25.90;1.00
1592;DHT22;789;51.612;7.510;2023-07-09T16:23:49;25.80;1.00
1592;DHT22;789;51.612;7.510;2023-07-09T16:26:18;25.80;1.00
1592;DHT22;789;51.612;7.510;2023-07-09T16:28:44;25.70;1.00
1592;DHT22;789;51.612;7.510;2023-07-09T16:31:11;25.70;1.00
1592;DHT22;789;51.612;7.510;2023-07-09T16:33:38;25.80;1.00
1592;DHT22;789;51.612;7.510;2023-07-09T16:36:07;25.90;1.00
1592;DHT22;789;51.612;7.510;2023-07-09T16:38:36;26.10;1.00
1592;DHT22;789;51.612;7.510;2023-07-09T16:41:02;26.20;1.00
1592;DHT22;789;51.612;7.510;2023-07-09T16:43:30;26.20;1.00
1592;DHT22;789;51.612;7.510;2023-07-09T16:45:57;26.30;1.00
1592;DHT22;789;51.612;7.510;2023-07-09T16:48:24;26.40;1.00
1592;DHT22;789;51.612;7.510;2023-07-09T16:50:54;26.40;1.00
1592;DHT22;789;51.612;7.510;2023-07-09T16:53:22;26.50;1.00